createdAt,value
2022-09-15T00:00:24.253Z,42.52
2022-09-15T00:01:15.415Z,42.72
2022-09-15T00:02:07.988Z,42.30
2022-09-15T00:03:00.037Z,42.19
2022-09-15T00:03:51.555Z,42.63
2022-09-15T00:04:48.506Z,42.28
2022-09-15T00:05:40.397Z,42.22
2022-09-15T00:06:32.800Z,42.39
2022-09-15T00:07:23.866Z,42.22
2022-09-15T00:08:21.001Z,42.25
2022-09-15T00:09:14.256Z,42.23
2022-09-15T00:10:08.183Z,42.22
2022-09-15T00:11:04.381Z,42.24
2022-09-15T00:11:55.570Z,42.50
2022-09-15T00:12:47.460Z,42.17
2022-09-15T00:13:41.102Z,42.31
2022-09-15T00:14:33.736Z,42.34
2022-09-15T00:15:33.374Z,42.30
2022-09-15T00:16:26.425Z,42.52
2022-09-15T00:17:18.337Z,42.30
2022-09-15T00:18:09.813Z,42.01
2022-09-15T00:19:00.787Z,42.43
2022-09-15T00:19:56.944Z,42.44
2022-09-15T00:20:50.412Z,42.40
2022-09-15T00:21:40.676Z,42.49
2022-09-15T00:22:30.392Z,42.51
2022-09-15T00:23:20.368Z,42.26
2022-09-15T00:24:08.978Z,42.41
2022-09-15T00:25:05.758Z,42.29
2022-09-15T00:26:01.470Z,42.26
2022-09-15T00:26:52.704Z,42.26
2022-09-15T00:27:40.628Z,42.15
2022-09-15T00:28:31.517Z,42.22
2022-09-15T00:29:24.376Z,42.36
2022-09-15T00:30:17.105Z,42.29
2022-09-15T00:31:09.352Z,42.14
2022-09-15T00:32:01.341Z,42.29
2022-09-15T00:32:54.826Z,42.51
2022-09-15T00:33:47.984Z,42.41
2022-09-15T00:34:41.011Z,42.25
2022-09-15T00:36:35.194Z,42.40
2022-09-15T00:37:25.667Z,42.25
2022-09-15T00:38:18.952Z,42.32
2022-09-15T00:39:10.938Z,42.28
2022-09-15T00:40:03.287Z,42.37
2022-09-15T00:41:06.912Z,42.13
2022-09-15T00:41:59.221Z,42.09
2022-09-15T00:42:53.088Z,42.09
2022-09-15T00:43:55.664Z,41.96
2022-09-15T00:45:07.971Z,42.31
2022-09-15T00:46:04.194Z,42.01
2022-09-15T00:47:09.670Z,41.83
2022-09-15T00:48:00.638Z,42.21
2022-09-15T00:48:51.399Z,42.51
2022-09-15T00:49:41.653Z,42.11
2022-09-15T00:50:31.620Z,42.10
2022-09-15T00:51:25.942Z,42.23
2022-09-15T00:52:34.409Z,42.19
2022-09-15T00:53:26.209Z,42.31
2022-09-15T00:54:16.695Z,41.90
2022-09-15T00:55:14.746Z,42.08
2022-09-15T00:56:04.974Z,42.19
2022-09-15T00:56:58.690Z,42.10
2022-09-15T00:57:52.658Z,42.04
2022-09-15T00:58:48.039Z,42.26
2022-09-15T00:59:39.122Z,42.15
2022-09-15T01:00:30.133Z,42.29
2022-09-15T01:01:24.346Z,41.84
2022-09-15T01:02:15.884Z,42.00
2022-09-15T01:03:07.457Z,42.02
2022-09-15T01:03:55.262Z,42.03
2022-09-15T01:04:47.647Z,41.83
2022-09-15T01:05:44.224Z,41.93
2022-09-15T01:06:35.641Z,42.07
2022-09-15T01:07:26.803Z,41.93
2022-09-15T01:08:22.464Z,42.07
2022-09-15T01:09:18.047Z,42.06
2022-09-15T01:10:06.590Z,41.96
2022-09-15T01:11:00.474Z,42.07
2022-09-15T01:11:52.903Z,41.86
2022-09-15T01:12:46.137Z,42.05
2022-09-15T01:13:38.047Z,42.09
2022-09-15T01:14:30.702Z,41.99
2022-09-15T01:15:23.749Z,41.95
2022-09-15T01:16:37.980Z,42.17
2022-09-15T01:17:26.243Z,41.73
2022-09-15T01:18:31.081Z,42.07
2022-09-15T01:19:19.396Z,41.82
2022-09-15T01:20:18.717Z,42.14
2022-09-15T01:21:05.071Z,42.00
2022-09-15T01:21:58.743Z,41.82
2022-09-15T01:22:48.330Z,42.07
2022-09-15T01:23:32.882Z,41.39
2022-09-15T01:24:45.586Z,41.81
2022-09-15T01:25:27.641Z,42.01
2022-09-15T01:26:26.902Z,42.19
2022-09-15T01:27:30.606Z,41.85
2022-09-15T01:28:18.972Z,41.87
2022-09-15T01:29:04.157Z,41.99
2022-09-15T01:29:52.891Z,41.88
2022-09-15T01:30:42.649Z,41.83
2022-09-15T01:31:34.988Z,41.75
2022-09-15T01:32:26.383Z,41.53
2022-09-15T01:33:07.111Z,41.82
2022-09-15T01:34:13.723Z,41.62
2022-09-15T01:35:07.125Z,41.94
2022-09-15T01:35:47.636Z,41.63
2022-09-15T01:36:53.109Z,42.00
2022-09-15T01:37:47.384Z,41.41
2022-09-15T01:38:55.176Z,41.67
2022-09-15T01:39:46.571Z,41.92
2022-09-15T01:40:38.203Z,41.69
2022-09-15T01:41:46.994Z,41.77
2022-09-15T01:42:40.447Z,41.87
2022-09-15T01:43:33.042Z,41.40
2022-09-15T01:44:22.603Z,41.45
2022-09-15T01:45:11.879Z,41.79
2022-09-15T01:46:03.638Z,41.62
2022-09-15T01:46:58.419Z,41.54
2022-09-15T01:47:51.650Z,41.57
2022-09-15T01:48:45.282Z,41.75
2022-09-15T01:49:35.519Z,41.87
2022-09-15T01:50:25.558Z,41.92
2022-09-15T01:51:17.190Z,41.83
2022-09-15T01:52:13.430Z,41.50
2022-09-15T01:53:02.252Z,41.73
2022-09-15T01:53:49.841Z,41.48
2022-09-15T01:54:39.692Z,41.30
2022-09-15T01:55:36.070Z,41.62
2022-09-15T01:56:27.006Z,41.62
2022-09-15T01:57:24.360Z,41.39
2022-09-15T01:58:16.659Z,41.58
2022-09-15T01:59:08.645Z,41.49
2022-09-15T02:00:00.169Z,41.67
2022-09-15T02:00:53.057Z,41.84
2022-09-15T02:01:36.381Z,41.42
2022-09-15T02:02:33.306Z,41.77
2022-09-15T02:03:30.840Z,41.56
2022-09-15T02:04:33.783Z,41.25
2022-09-15T02:05:24.478Z,41.42
2022-09-15T02:06:15.207Z,41.68
2022-09-15T02:07:08.776Z,41.78
2022-09-15T02:08:41.258Z,41.25
2022-09-15T02:09:24.053Z,41.69
2022-09-15T02:10:30.684Z,41.42
2022-09-15T02:11:15.295Z,41.48
2022-09-15T02:12:12.574Z,41.48
2022-09-15T02:13:00.992Z,41.50
2022-09-15T02:13:46.334Z,41.45
2022-09-15T02:14:57.622Z,41.79
2022-09-15T02:15:56.717Z,41.48
2022-09-15T02:16:48.478Z,41.35
2022-09-15T02:17:37.591Z,41.24
2022-09-15T02:18:27.394Z,41.75
2022-09-15T02:19:09.846Z,41.46
2022-09-15T02:20:12.194Z,41.60
2022-09-15T02:21:05.299Z,41.38
2022-09-15T02:21:59.866Z,41.25
2022-09-15T02:22:49.045Z,41.54
2022-09-15T02:23:43.196Z,41.31
2022-09-15T02:24:32.677Z,41.52
2022-09-15T02:25:26.879Z,41.68
2022-09-15T02:26:28.464Z,41.62
2022-09-15T02:27:19.781Z,41.04
2022-09-15T02:28:10.259Z,41.56
2022-09-15T02:29:03.777Z,41.57
2022-09-15T02:29:54.946Z,41.24
2022-09-15T02:30:48.386Z,41.86
2022-09-15T02:31:43.438Z,41.55
2022-09-15T02:32:32.735Z,41.17
2022-09-15T02:33:24.318Z,41.26
2022-09-15T02:34:13.779Z,41.30
2022-09-15T02:35:07.258Z,41.25
2022-09-15T02:35:59.171Z,41.32
2022-09-15T02:36:58.584Z,41.41
2022-09-15T02:37:50.268Z,41.42
2022-09-15T02:38:41.412Z,41.19
2022-09-15T02:39:32.361Z,41.28
2022-09-15T02:40:22.190Z,41.42
2022-09-15T02:41:14.820Z,41.06
2022-09-15T02:42:09.703Z,41.21
2022-09-15T02:43:12.141Z,41.32
2022-09-15T02:44:03.787Z,41.44
2022-09-15T02:44:56.805Z,41.21
2022-09-15T02:45:51.968Z,40.92
2022-09-15T02:46:47.751Z,41.03
2022-09-15T02:47:45.271Z,41.13
2022-09-15T02:48:36.731Z,41.38
2022-09-15T02:49:28.419Z,41.27
2022-09-15T02:50:19.165Z,40.92
2022-09-15T02:51:11.005Z,41.47
2022-09-15T02:52:01.811Z,41.39
2022-09-15T02:53:56.792Z,41.13
2022-09-15T02:54:49.881Z,40.90
2022-09-15T02:55:42.384Z,41.16
2022-09-15T02:56:33.233Z,41.08
2022-09-15T02:57:30.228Z,41.19
2022-09-15T02:58:26.418Z,41.27
2022-09-15T02:59:18.854Z,41.17
2022-09-15T03:00:10.094Z,41.02
2022-09-15T03:01:04.371Z,41.38
2022-09-15T03:01:59.596Z,41.29
2022-09-15T03:02:52.405Z,41.18
2022-09-15T03:03:45.300Z,41.53
2022-09-15T03:04:37.769Z,41.40
2022-09-15T03:05:31.667Z,41.25
2022-09-15T03:06:24.729Z,41.43
2022-09-15T03:08:23.846Z,41.04
2022-09-15T03:09:14.315Z,40.87
2022-09-15T03:10:04.720Z,40.91
2022-09-15T03:10:56.279Z,41.03
2022-09-15T03:11:49.508Z,41.54
2022-09-15T03:12:46.632Z,41.22
2022-09-15T03:13:35.951Z,41.01
2022-09-15T03:14:25.945Z,41.18
2022-09-15T03:15:14.083Z,41.42
2022-09-15T03:16:02.868Z,40.98
2022-09-15T03:16:57.350Z,41.24
2022-09-15T03:17:47.296Z,41.09
2022-09-15T03:18:36.729Z,41.29
2022-09-15T03:19:28.965Z,41.29
2022-09-15T03:20:20.345Z,41.37
2022-09-15T03:21:11.027Z,41.13
2022-09-15T03:22:08.335Z,41.13
2022-09-15T03:22:58.557Z,40.98
2022-09-15T03:23:50.756Z,41.23
2022-09-15T03:24:43.202Z,41.25
2022-09-15T03:25:37.081Z,41.28
2022-09-15T03:26:30.873Z,41.13
2022-09-15T03:28:27.778Z,41.22
2022-09-15T03:29:21.638Z,41.11
2022-09-15T03:30:13.066Z,40.87
2022-09-15T03:31:05.174Z,41.20
2022-09-15T03:31:58.052Z,41.09
2022-09-15T03:33:53.317Z,40.77
2022-09-15T03:34:44.921Z,41.07
2022-09-15T03:35:37.156Z,40.83
2022-09-15T03:36:30.429Z,41.12
2022-09-15T03:37:27.827Z,41.16
2022-09-15T03:38:25.582Z,41.06
2022-09-15T03:39:18.922Z,41.06
2022-09-15T03:40:11.612Z,41.16
2022-09-15T03:41:14.109Z,40.92
2022-09-15T03:42:07.835Z,40.93
2022-09-15T03:43:07.745Z,41.23
2022-09-15T03:43:56.845Z,40.77
2022-09-15T03:44:47.074Z,41.12
2022-09-15T03:45:35.918Z,40.98
2022-09-15T03:46:24.997Z,40.84
2022-09-15T03:47:13.746Z,40.96
2022-09-15T03:48:09.342Z,40.90
2022-09-15T03:49:08.213Z,41.18
2022-09-15T03:50:01.048Z,41.04
2022-09-15T03:50:54.952Z,41.00
2022-09-15T03:51:49.146Z,40.88
2022-09-15T03:52:48.505Z,40.91
2022-09-15T03:53:41.650Z,41.07
2022-09-15T03:54:34.361Z,40.85
2022-09-15T03:55:28.526Z,41.43
2022-09-15T03:56:25.451Z,40.87
2022-09-15T03:57:18.529Z,41.04
2022-09-15T03:59:13.370Z,40.96
2022-09-15T04:01:02.974Z,41.18
2022-09-15T04:01:59.590Z,41.25
2022-09-15T04:02:52.493Z,41.08
2022-09-15T04:03:50.147Z,40.99
2022-09-15T04:04:42.654Z,41.05
2022-09-15T04:05:33.644Z,41.35
2022-09-15T04:06:26.350Z,41.15
2022-09-15T04:08:26.173Z,41.27
2022-09-15T04:09:20.399Z,41.05
2022-09-15T04:10:11.207Z,41.24
2022-09-15T04:11:04.437Z,41.09
2022-09-15T04:11:59.141Z,41.02
2022-09-15T04:12:52.065Z,41.45
2022-09-15T04:13:45.217Z,40.93
2022-09-15T04:14:38.323Z,41.19
2022-09-15T04:15:34.939Z,41.28
2022-09-15T04:16:26.557Z,41.25
2022-09-15T04:18:20.692Z,41.41
2022-09-15T04:19:14.710Z,41.17
2022-09-15T04:20:06.935Z,41.01
2022-09-15T04:20:59.735Z,41.10
2022-09-15T04:21:57.536Z,41.29
2022-09-15T04:22:50.946Z,41.30
2022-09-15T04:23:44.345Z,41.32
2022-09-15T04:24:37.072Z,41.20
2022-09-15T04:25:29.367Z,41.18
2022-09-15T04:26:21.815Z,41.05
2022-09-15T04:28:15.639Z,41.20
2022-09-15T04:29:06.281Z,41.35
2022-09-15T04:29:55.456Z,41.32
2022-09-15T04:30:46.135Z,41.24
2022-09-15T04:31:36.292Z,41.63
2022-09-15T04:32:34.878Z,41.46
2022-09-15T04:33:29.171Z,41.38
2022-09-15T04:34:20.888Z,41.54
2022-09-15T04:35:11.749Z,41.19
2022-09-15T04:36:04.572Z,41.28
2022-09-15T04:36:58.406Z,41.51
2022-09-15T04:38:53.624Z,41.44
2022-09-15T04:39:45.522Z,41.25
2022-09-15T04:40:40.026Z,41.52
2022-09-15T04:41:34.224Z,41.32
2022-09-15T04:42:32.053Z,41.19
2022-09-15T04:43:25.423Z,41.33
2022-09-15T04:44:18.389Z,41.46
2022-09-15T04:45:11.565Z,41.49
2022-09-15T04:46:06.276Z,41.38
2022-09-15T04:47:00.075Z,41.40
2022-09-15T04:48:59.335Z,41.52
2022-09-15T04:49:51.573Z,41.35
2022-09-15T04:50:46.414Z,41.47
2022-09-15T04:51:41.790Z,41.43
2022-09-15T04:52:39.379Z,41.57
2022-09-15T04:53:33.226Z,41.50
2022-09-15T04:54:26.239Z,41.20
2022-09-15T04:55:22.137Z,41.42
2022-09-15T04:56:23.277Z,41.37
2022-09-15T04:57:15.812Z,41.35
2022-09-15T04:58:15.166Z,41.28
2022-09-15T04:59:07.136Z,41.28
2022-09-15T04:59:57.741Z,41.64
2022-09-15T05:01:02.052Z,41.58
2022-09-15T05:01:55.321Z,41.21
2022-09-15T05:02:46.735Z,41.44
2022-09-15T05:03:42.152Z,41.51
2022-09-15T05:04:33.263Z,41.49
2022-09-15T05:05:25.234Z,41.32
2022-09-15T05:06:19.062Z,41.29
2022-09-15T05:07:12.612Z,41.59
2022-09-15T05:08:05.800Z,41.39
2022-09-15T05:08:59.072Z,41.59
2022-09-15T05:09:50.239Z,41.53
2022-09-15T05:10:41.249Z,41.52
2022-09-15T05:11:32.359Z,41.41
2022-09-15T05:12:23.715Z,41.70
2022-09-15T05:13:14.256Z,41.54
2022-09-15T05:14:12.727Z,41.60
2022-09-15T05:15:05.958Z,41.49
2022-09-15T05:15:57.740Z,41.46
2022-09-15T05:16:52.044Z,41.20
2022-09-15T05:17:43.261Z,41.26
2022-09-15T05:18:33.343Z,41.39
2022-09-15T05:19:28.224Z,41.53
2022-09-15T05:20:18.205Z,41.54
2022-09-15T05:21:16.653Z,41.53
2022-09-15T05:22:10.850Z,41.50
2022-09-15T05:23:04.285Z,41.51
2022-09-15T05:23:55.109Z,41.39
2022-09-15T05:25:49.737Z,41.23
2022-09-15T05:26:42.173Z,41.22
2022-09-15T05:27:35.050Z,41.27
2022-09-15T05:28:31.031Z,41.52
2022-09-15T05:29:27.248Z,41.57
2022-09-15T05:31:27.893Z,41.34
2022-09-15T05:32:19.069Z,41.42
2022-09-15T05:33:14.119Z,41.22
2022-09-15T05:34:04.551Z,41.55
2022-09-15T05:34:56.531Z,41.54
2022-09-15T05:35:47.730Z,41.64
2022-09-15T05:36:39.168Z,41.38
2022-09-15T05:37:30.757Z,41.53
2022-09-15T05:38:30.093Z,41.65
2022-09-15T05:39:23.820Z,41.48
2022-09-15T05:40:16.116Z,41.50
2022-09-15T05:41:09.153Z,41.48
2022-09-15T05:42:02.062Z,41.73
2022-09-15T05:42:54.233Z,41.45
2022-09-15T05:43:53.025Z,41.48
2022-09-15T05:44:42.319Z,41.63
2022-09-15T05:45:34.797Z,41.29
2022-09-15T05:46:24.569Z,41.55
2022-09-15T05:47:16.349Z,41.42
2022-09-15T05:48:09.145Z,41.51
2022-09-15T05:49:06.786Z,41.33
2022-09-15T05:50:01.344Z,41.53
2022-09-15T05:50:58.543Z,41.39
2022-09-15T05:51:53.612Z,41.75
2022-09-15T05:52:46.746Z,41.52
2022-09-15T05:53:41.377Z,41.58
2022-09-15T05:55:39.920Z,41.67
2022-09-15T05:56:32.242Z,41.39
2022-09-15T05:57:25.910Z,41.30
2022-09-15T05:58:17.737Z,41.43
2022-09-15T05:59:15.500Z,41.51
2022-09-15T06:00:12.957Z,41.14
2022-09-15T06:01:05.872Z,41.55
2022-09-15T06:01:58.740Z,41.65
2022-09-15T06:02:51.924Z,41.37
2022-09-15T06:03:44.033Z,41.43
2022-09-15T06:04:40.896Z,41.60
2022-09-15T06:05:35.315Z,41.50
2022-09-15T06:06:28.716Z,41.54
2022-09-15T06:07:22.043Z,41.41
2022-09-15T06:08:15.771Z,41.56
2022-09-15T06:09:05.513Z,41.65
2022-09-15T06:10:01.007Z,41.35
2022-09-15T06:10:52.161Z,41.52
2022-09-15T06:11:43.031Z,41.68
2022-09-15T06:12:34.195Z,41.43
2022-09-15T06:13:25.687Z,41.48
2022-09-15T06:14:20.713Z,41.49
2022-09-15T06:15:09.985Z,41.39
2022-09-15T06:15:59.784Z,41.40
2022-09-15T06:16:48.815Z,41.40
2022-09-15T06:17:39.284Z,41.37
2022-09-15T06:18:29.204Z,41.15
2022-09-15T06:19:21.924Z,41.39
2022-09-15T06:20:11.912Z,41.55
2022-09-15T06:21:02.686Z,41.58
2022-09-15T06:21:52.629Z,41.40
2022-09-15T06:22:44.208Z,41.59
2022-09-15T06:23:35.034Z,41.61
2022-09-15T06:24:32.292Z,41.54
2022-09-15T06:25:22.869Z,41.65
2022-09-15T06:26:15.741Z,41.47
2022-09-15T06:27:05.514Z,41.47
2022-09-15T06:27:54.403Z,41.71
2022-09-15T06:28:46.018Z,41.50
2022-09-15T06:29:40.315Z,41.43
2022-09-15T06:30:31.150Z,41.55
2022-09-15T06:31:22.566Z,41.60
2022-09-15T06:32:12.992Z,41.66
2022-09-15T06:33:02.166Z,41.71
2022-09-15T06:33:54.605Z,41.62
2022-09-15T06:34:51.601Z,41.41
2022-09-15T06:35:44.725Z,41.97
2022-09-15T06:36:35.448Z,41.58
2022-09-15T06:37:27.514Z,41.57
2022-09-15T06:38:20.278Z,41.52
2022-09-15T06:39:14.099Z,41.81
2022-09-15T06:40:11.144Z,41.96
2022-09-15T06:41:11.103Z,41.83
2022-09-15T06:42:05.902Z,41.72
2022-09-15T06:42:57.711Z,41.77
2022-09-15T06:43:50.377Z,41.72
2022-09-15T06:44:42.076Z,41.78
2022-09-15T06:45:40.522Z,41.67
2022-09-15T06:46:35.100Z,41.69
2022-09-15T06:47:28.361Z,41.63
2022-09-15T06:48:24.841Z,41.38
2022-09-15T06:49:15.183Z,41.61
2022-09-15T06:50:06.930Z,41.42
2022-09-15T06:52:00.595Z,41.52
2022-09-15T06:52:52.237Z,41.91
2022-09-15T06:53:48.110Z,41.86
2022-09-15T06:54:39.804Z,41.71
2022-09-15T06:55:32.213Z,41.74
2022-09-15T06:56:24.513Z,41.90
2022-09-15T06:57:16.365Z,41.63
2022-09-15T06:58:09.450Z,41.56
2022-09-15T06:59:10.428Z,41.73
2022-09-15T07:01:05.760Z,41.88
2022-09-15T07:02:00.334Z,41.62
2022-09-15T07:02:56.979Z,41.73
2022-09-15T07:03:50.033Z,41.82
2022-09-15T07:04:48.983Z,41.84
2022-09-15T07:05:43.158Z,41.71
2022-09-15T07:06:35.660Z,41.52
2022-09-15T07:07:29.279Z,41.81
2022-09-15T07:08:22.554Z,41.89
2022-09-15T07:09:18.662Z,41.75
2022-09-15T07:10:10.865Z,41.86
2022-09-15T07:11:04.148Z,41.70
2022-09-15T07:11:57.393Z,41.92
2022-09-15T07:12:50.774Z,41.89
2022-09-15T07:13:42.268Z,41.67
2022-09-15T07:14:40.194Z,41.78
2022-09-15T07:15:35.920Z,41.72
2022-09-15T07:16:33.511Z,41.84
2022-09-15T07:17:25.991Z,41.72
2022-09-15T07:18:17.897Z,41.76
2022-09-15T07:19:07.961Z,42.09
2022-09-15T07:20:00.898Z,41.92
2022-09-15T07:20:52.231Z,41.79
2022-09-15T07:22:47.172Z,41.72
2022-09-15T07:23:41.604Z,41.97
2022-09-15T07:24:34.558Z,41.99
2022-09-15T07:25:27.486Z,41.86
2022-09-15T07:26:16.364Z,42.04
2022-09-15T07:27:13.589Z,41.96
2022-09-15T07:28:05.866Z,41.87
2022-09-15T07:28:55.082Z,41.72
2022-09-15T07:29:45.593Z,41.98
2022-09-15T07:30:41.816Z,41.89
2022-09-15T07:31:33.594Z,42.12
2022-09-15T07:32:32.580Z,42.02
2022-09-15T07:33:23.682Z,42.10
2022-09-15T07:34:14.535Z,42.13
2022-09-15T07:35:03.918Z,42.07
2022-09-15T07:35:53.440Z,42.36
2022-09-15T07:36:50.059Z,42.14
2022-09-15T07:37:46.227Z,41.96
2022-09-15T07:38:37.436Z,42.09
2022-09-15T07:39:30.578Z,42.17
2022-09-15T07:40:21.466Z,42.16
2022-09-15T07:41:17.864Z,42.28
2022-09-15T07:42:11.807Z,42.00
2022-09-15T07:44:03.845Z,42.01
2022-09-15T07:44:55.173Z,42.14
2022-09-15T07:45:49.334Z,42.00
2022-09-15T07:46:46.598Z,42.13
2022-09-15T07:47:35.943Z,42.18
2022-09-15T07:48:28.947Z,42.06
2022-09-15T07:49:19.722Z,42.14
2022-09-15T07:50:08.789Z,42.17
2022-09-15T07:50:58.471Z,42.12
2022-09-15T07:51:50.292Z,42.25
2022-09-15T07:52:40.207Z,42.28
2022-09-15T07:53:34.759Z,41.97
2022-09-15T07:54:24.974Z,42.11
2022-09-15T07:55:18.257Z,42.14
2022-09-15T07:56:10.739Z,41.90
2022-09-15T07:57:04.843Z,41.99
2022-09-15T07:58:48.769Z,42.32
2022-09-15T07:59:43.400Z,42.20
2022-09-15T08:00:37.720Z,42.15
2022-09-15T08:01:28.909Z,42.11
2022-09-15T08:02:27.341Z,42.05
2022-09-15T08:03:18.908Z,41.74
2022-09-15T08:04:09.600Z,41.82
2022-09-15T08:05:01.038Z,42.12
2022-09-15T08:05:53.375Z,42.13
2022-09-15T08:06:49.485Z,41.98
2022-09-15T08:07:42.245Z,42.04
2022-09-15T08:08:36.203Z,42.14
2022-09-15T08:09:28.701Z,42.11
2022-09-15T08:10:20.325Z,42.28
2022-09-15T08:11:18.418Z,42.20
2022-09-15T08:13:15.828Z,42.03
2022-09-15T08:14:07.073Z,42.17
2022-09-15T08:14:59.920Z,41.86
2022-09-15T08:15:52.973Z,41.83
2022-09-15T08:16:46.138Z,42.10
2022-09-15T08:17:40.057Z,41.90
2022-09-15T08:18:29.970Z,41.98
2022-09-15T08:19:20.597Z,41.99
2022-09-15T08:20:09.514Z,42.07
2022-09-15T08:20:59.453Z,42.04
2022-09-15T08:21:49.404Z,41.86
2022-09-15T08:22:43.485Z,41.60
2022-09-15T08:23:33.939Z,42.06
2022-09-15T08:24:25.160Z,42.08
2022-09-15T08:25:13.986Z,42.18
2022-09-15T08:26:01.678Z,42.18
2022-09-15T08:26:50.487Z,41.81
2022-09-15T08:27:46.732Z,42.10
2022-09-15T08:28:36.594Z,41.92
2022-09-15T08:29:29.116Z,42.05
2022-09-15T08:30:17.284Z,42.10
2022-09-15T08:31:12.459Z,42.07
2022-09-15T08:32:02.362Z,41.98
2022-09-15T08:32:59.251Z,41.93
2022-09-15T08:33:51.903Z,41.90
2022-09-15T08:34:41.716Z,42.14
2022-09-15T08:35:31.936Z,41.97
2022-09-15T08:36:21.869Z,42.09
2022-09-15T08:37:11.017Z,42.00
2022-09-15T08:38:03.639Z,41.95
2022-09-15T08:38:53.300Z,42.02
2022-09-15T08:39:46.173Z,42.14
2022-09-15T08:40:36.990Z,41.86
2022-09-15T08:41:31.895Z,41.88
2022-09-15T08:42:24.969Z,42.13
2022-09-15T08:43:19.612Z,42.17
2022-09-15T08:44:23.986Z,41.98
2022-09-15T08:45:13.803Z,41.97
2022-09-15T08:46:04.238Z,42.14
2022-09-15T08:47:05.225Z,42.01
2022-09-15T08:47:56.200Z,42.03
2022-09-15T08:48:50.652Z,42.22
2022-09-15T08:49:53.935Z,42.04
2022-09-15T08:50:48.747Z,42.03
2022-09-15T08:51:44.491Z,41.98
2022-09-15T08:52:47.136Z,42.06
2022-09-15T08:53:43.415Z,42.08
2022-09-15T08:54:32.903Z,41.78
2022-09-15T08:55:24.315Z,41.92
2022-09-15T08:56:17.003Z,42.04
2022-09-15T08:58:17.582Z,41.84
2022-09-15T08:59:09.211Z,42.08
2022-09-15T09:00:01.719Z,42.02
2022-09-15T09:01:16.625Z,42.06
2022-09-15T09:02:19.722Z,41.87
2022-09-15T09:03:27.065Z,41.87
2022-09-15T09:04:16.384Z,41.86
2022-09-15T09:05:00.044Z,42.07
2022-09-15T09:05:42.431Z,41.79
2022-09-15T09:06:37.192Z,41.99
2022-09-15T09:07:21.194Z,41.95
2022-09-15T09:08:13.971Z,41.88
2022-09-15T09:09:14.573Z,42.00
2022-09-15T09:10:06.069Z,41.72
2022-09-15T09:11:06.395Z,41.90
2022-09-15T09:11:58.088Z,41.67
2022-09-15T09:13:02.034Z,41.67
2022-09-15T09:14:06.849Z,41.83
2022-09-15T09:15:12.448Z,41.82
2022-09-15T09:15:57.717Z,41.38
2022-09-15T09:16:56.908Z,41.52
2022-09-15T09:17:38.483Z,41.82
2022-09-15T09:18:36.665Z,41.92
2022-09-15T09:19:31.362Z,41.80
2022-09-15T09:20:17.888Z,41.83
2022-09-15T09:21:04.349Z,41.79
2022-09-15T09:21:55.324Z,41.46
2022-09-15T09:22:53.768Z,41.18
2022-09-15T09:23:44.748Z,41.72
2022-09-15T09:25:05.896Z,41.67
2022-09-15T09:26:08.621Z,41.68
2022-09-15T09:26:58.747Z,41.47
2022-09-15T09:27:56.542Z,41.48
2022-09-15T09:28:47.088Z,41.39
2022-09-15T09:29:45.591Z,41.27
2022-09-15T09:30:41.258Z,41.51
2022-09-15T09:31:29.659Z,41.50
2022-09-15T09:32:37.980Z,41.23
2022-09-15T09:33:38.729Z,41.40
2022-09-15T09:34:46.943Z,41.26
2022-09-15T09:35:50.261Z,41.04
2022-09-15T09:36:43.505Z,41.33
2022-09-15T09:37:35.087Z,41.61
2022-09-15T09:38:25.795Z,41.15
2022-09-15T09:39:18.219Z,40.98
2022-09-15T09:40:09.914Z,41.23
2022-09-15T09:41:07.741Z,41.23
2022-09-15T09:42:00.403Z,41.31
2022-09-15T09:42:53.374Z,41.14
2022-09-15T09:43:46.037Z,40.98
2022-09-15T09:44:37.052Z,41.20
2022-09-15T09:45:31.668Z,41.16
2022-09-15T09:46:34.306Z,41.24
2022-09-15T09:47:25.284Z,40.68
2022-09-15T09:48:16.400Z,40.81
2022-09-15T09:49:06.331Z,40.78
2022-09-15T09:49:56.461Z,40.88
2022-09-15T09:50:47.528Z,41.14
2022-09-15T09:51:48.873Z,41.10
2022-09-15T09:52:47.816Z,40.96
2022-09-15T09:53:37.853Z,40.77
2022-09-15T09:54:28.933Z,40.91
2022-09-15T09:55:22.196Z,40.65
2022-09-15T09:56:21.206Z,40.84
2022-09-15T09:57:17.527Z,40.61
2022-09-15T09:58:12.240Z,40.46
2022-09-15T09:59:04.672Z,40.59
2022-09-15T10:00:01.368Z,40.79
2022-09-15T10:00:55.615Z,40.36
2022-09-15T10:01:49.159Z,40.49
2022-09-15T10:02:39.042Z,40.32
2022-09-15T10:03:35.507Z,40.67
2022-09-15T10:04:27.664Z,40.70
2022-09-15T10:05:09.032Z,40.67
2022-09-15T10:05:50.331Z,40.17
2022-09-15T10:06:44.954Z,40.33
2022-09-15T10:07:25.000Z,40.20
2022-09-15T10:08:14.311Z,39.75
2022-09-15T10:08:56.469Z,40.10
2022-09-15T10:09:45.810Z,39.99
2022-09-15T10:10:34.906Z,40.26
2022-09-15T10:11:22.471Z,40.07
2022-09-15T10:12:15.874Z,40.17
2022-09-15T10:13:05.945Z,40.25
2022-09-15T10:14:01.472Z,39.72
2022-09-15T10:14:54.029Z,39.74
2022-09-15T10:15:42.781Z,39.78
2022-09-15T10:16:34.353Z,39.77
2022-09-15T10:17:19.640Z,39.99
2022-09-15T10:18:08.015Z,40.23
2022-09-15T10:18:58.009Z,40.43
2022-09-15T10:19:57.511Z,40.12
2022-09-15T10:20:49.645Z,39.98
2022-09-15T10:21:46.314Z,40.21
2022-09-15T10:22:41.525Z,39.89
2022-09-15T10:23:22.343Z,39.98
2022-09-15T10:24:18.196Z,39.84
2022-09-15T10:25:09.782Z,39.88
2022-09-15T10:26:02.837Z,39.79
2022-09-15T10:26:59.868Z,39.75
2022-09-15T10:27:53.252Z,40.12
2022-09-15T10:28:43.603Z,39.79
2022-09-15T10:29:33.865Z,39.58
2022-09-15T10:30:18.465Z,39.56
2022-09-15T10:31:23.722Z,39.67
2022-09-15T10:33:33.306Z,39.66
2022-09-15T10:34:27.537Z,39.87
2022-09-15T10:35:08.762Z,39.62
2022-09-15T10:35:56.995Z,39.39
2022-09-15T10:36:54.420Z,39.73
2022-09-15T10:37:58.267Z,39.53
2022-09-15T10:38:45.819Z,39.54
2022-09-15T10:39:35.076Z,39.70
2022-09-15T10:40:22.263Z,39.78
2022-09-15T10:41:15.142Z,39.50
2022-09-15T10:42:08.166Z,39.55
2022-09-15T10:43:04.755Z,39.74
2022-09-15T10:43:55.690Z,39.42
2022-09-15T10:44:46.075Z,39.06
2022-09-15T10:45:27.793Z,39.30
2022-09-15T10:46:15.965Z,39.15
2022-09-15T10:47:09.211Z,39.65
2022-09-15T10:48:06.475Z,39.40
2022-09-15T10:48:48.560Z,38.85
2022-09-15T10:49:51.267Z,38.88
2022-09-15T10:50:41.121Z,39.01
2022-09-15T10:51:44.465Z,39.09
2022-09-15T10:52:40.002Z,39.30
2022-09-15T10:53:21.564Z,39.16
2022-09-15T10:54:05.883Z,39.00
2022-09-15T10:55:09.559Z,38.97
2022-09-15T10:56:05.731Z,39.25
2022-09-15T10:56:53.614Z,39.18
2022-09-15T10:57:50.790Z,39.44
2022-09-15T10:58:34.877Z,39.47
2022-09-15T10:59:35.279Z,38.92
2022-09-15T11:00:27.182Z,39.46
2022-09-15T11:01:26.618Z,39.31
2022-09-15T11:02:31.719Z,38.80
2022-09-15T11:03:19.004Z,39.25
2022-09-15T11:04:16.672Z,39.30
2022-09-15T11:05:04.754Z,39.29
2022-09-15T11:06:13.382Z,39.08
2022-09-15T11:07:26.949Z,39.33
2022-09-15T11:08:21.966Z,38.62
2022-09-15T11:09:13.904Z,39.35
2022-09-15T11:10:08.146Z,39.19
2022-09-15T11:10:49.915Z,39.32
2022-09-15T11:11:49.244Z,39.33
2022-09-15T11:12:50.991Z,39.27
2022-09-15T11:13:44.537Z,39.10
2022-09-15T11:14:27.759Z,38.92
2022-09-15T11:15:13.868Z,39.00
2022-09-15T11:15:58.406Z,38.73
2022-09-15T11:16:51.821Z,39.02
2022-09-15T11:18:40.491Z,39.06
2022-09-15T11:19:23.406Z,39.46
2022-09-15T11:20:04.988Z,39.18
2022-09-15T11:21:14.131Z,39.30
2022-09-15T11:22:04.305Z,38.97
2022-09-15T11:23:01.490Z,39.14
2022-09-15T11:23:52.120Z,39.39
2022-09-15T11:24:50.511Z,38.91
2022-09-15T11:25:41.456Z,39.02
2022-09-15T11:26:34.808Z,39.19
2022-09-15T11:27:39.808Z,38.77
2022-09-15T11:28:33.244Z,39.35
2022-09-15T11:29:32.245Z,38.98
2022-09-15T11:30:34.543Z,39.50
2022-09-15T11:31:26.581Z,39.27
2022-09-15T11:32:20.001Z,39.35
2022-09-15T11:33:08.949Z,39.35
2022-09-15T11:38:50.141Z,39.35
2022-09-15T11:39:44.882Z,39.69
2022-09-15T11:40:34.475Z,39.99
2022-09-15T11:41:16.236Z,39.61
2022-09-15T11:42:11.862Z,39.85
2022-09-15T11:43:00.659Z,39.73
2022-09-15T11:43:45.898Z,39.30
2022-09-15T11:48:29.808Z,39.81
2022-09-15T11:49:21.574Z,39.88
2022-09-15T11:50:11.398Z,40.59
2022-09-15T11:50:57.282Z,40.03
2022-09-15T11:58:59.680Z,40.28
2022-09-15T11:59:53.237Z,40.40
2022-09-15T12:00:48.154Z,40.23
2022-09-15T12:01:44.436Z,40.30
2022-09-15T12:02:48.172Z,40.24
2022-09-15T12:03:29.127Z,40.22
2022-09-15T12:04:26.813Z,40.71
2022-09-15T12:05:23.618Z,40.43
2022-09-15T12:06:15.247Z,40.40
2022-09-15T12:07:16.622Z,40.27